Queen Of Cowichan — CZ4990 — position and weather

sailwx.info

Track history (hours):
 
Tides and Currents Weather Stations Pressure Air Temp Water Temp Dewpoint Dewpoint Depression Visibility Wind Speed Wind Dir Waves Ship Positions

Queen Of Cowichan

Last reported at 2015-Jan-25 19:33 UTC. Time now 2015-Jan-25 20:24 UTC.
Position N 49°18' W 123°28'.

Length 139 m; draft 5.5 m.

Type: Passenger vessel. MMSI: 316001251.

Date/timePositionNaut miles runAvg speedWind from/ knotsBaromVisibWave heightAir tempDewpointWater temp
2015-Jan-25 19:33N 49°18' W 123°28'2019.8
2015-Jan-25 18:33N 49°12' W 123°57'9 9.5
2015-Jan-25 17:34N 49°16' W 123°44'1919.2
2015-Jan-25 16:33N 49°23' W 123°16'9 9.0
2015-Jan-25 15:33N 49°18' W 123°28'2019.7
2015-Jan-25 14:33N 49°12' W 123°57'1 0.2
2015-Jan-25 06:34N 49°13' W 123°55'2019.9
2015-Jan-25 05:34N 49°19' W 123°26'7 6.7
2015-Jan-25 04:33N 49°23' W 123°18'1919.1
2015-Jan-25 03:34N 49°15' W 123°44'9 8.8
2015-Jan-25 02:34N 49°12' W 123°57'2019.8
2015-Jan-25 01:33N 49°19' W 123°28'9 8.9
2015-Jan-25 00:34N 49°23' W 123°17'1918.6
2015-Jan-24 23:33N 49°16' W 123°43'10 7.3
2015-Jan-24 22:11N 49°12' W 123°57'1219.6
2015-Jan-24 21:33N 49°17' W 123°40'1712.3
2015-Jan-24 20:12N 49°23' W 123°16'1117.3
2015-Jan-24 19:33N 49°17' W 123°31'1813.2
2015-Jan-24 18:12N 49°12' W 123°57'1116.6
2015-Jan-24 17:33N 49°16' W 123°43'1812.7
2015-Jan-24 16:06N 49°23' W 123°16'916.8
2015-Jan-24 15:34N 49°18' W 123°28'2019.6
2015-Jan-24 14:33N 49°12' W 123°57'1 0.1
2015-Jan-24 07:22N 49°12' W 123°57'4 5.3
2015-Jan-24 06:33N 49°14' W 123°52'2020.0
2015-Jan-24 05:34N 49°20' W 123°23'1 1.1
2015-Jan-24 04:33N 49°19' W 123°21'2020.0
2015-Jan-24 03:33N 49°14' W 123°51'1 0.8
2015-Jan-24 02:33N 49°14' W 123°52'2019.8
2015-Jan-24 01:33N 49°19' W 123°23'5 4.8
2015-Jan-24 00:33N 49°23' W 123°18'1818.4
2015-Jan-23 23:33N 49°15' W 123°43'10 7.8
2015-Jan-23 22:18N 49°12' W 123°57'1418.6
2015-Jan-23 21:33N 49°17' W 123°38'1514.8
2015-Jan-23 20:32N 49°23' W 123°16'1212.7
2015-Jan-23 19:34N 49°17' W 123°33'1715.7
2015-Jan-23 18:29N 49°12' W 123°57'1212.9
2015-Jan-23 17:33N 49°17' W 123°41'1711.8
2015-Jan-23 16:07N 49°23' W 123°16'916.0
2015-Jan-23 15:33N 49°18' W 123°28'2019.7
2015-Jan-23 14:33N 49°12' W 123°57'1 0.1
2015-Jan-23 02:33N 49°12' W 123°56'1919.4
2015-Jan-23 01:33N 49°19' W 123°28'9 8.6
2015-Jan-23 00:33N 49°23' W 123°17'1918.7
2015-Jan-22 23:33N 49°15' W 123°43'10 6.7
2015-Jan-22 22:04N 49°12' W 123°57'1019.2
2015-Jan-22 21:33N 49°16' W 123°44'1919.0
2015-Jan-22 20:34N 49°23' W 123°16'10 9.6
2015-Jan-22 19:33N 49°17' W 123°28'2019.7
2015-Jan-22 18:33N 49°12' W 123°57'10 9.6
2015-Jan-22 17:33N 49°16' W 123°44'1919.1
2015-Jan-22 16:34N 49°23' W 123°17'9 8.8
2015-Jan-22 15:34N 49°18' W 123°28'2019.7
2015-Jan-22 14:33N 49°12' W 123°57'1 0.3
2015-Jan-22 12:12N 49°12' W 123°57'3 0.3
2015-Jan-22 02:33N 49°13' W 123°54'1918.6
2015-Jan-22 01:34N 49°19' W 123°27'8 7.9
2015-Jan-22 00:33N 49°23' W 123°17'1918.7
2015-Jan-21 23:34N 49°15' W 123°43'10 6.8
2015-Jan-21 22:04N 49°12' W 123°57'918.8
2015-Jan-21 21:33N 49°16' W 123°44'1919.2
2015-Jan-21 20:34N 49°23' W 123°17'10 9.8
2015-Jan-21 19:33N 49°18' W 123°29'1919.2
2015-Jan-21 18:33N 49°12' W 123°57'1010.0
2015-Jan-21 17:33N 49°16' W 123°43'1918.9
2015-Jan-21 16:33N 49°23' W 123°16'10 9.9
2015-Jan-21 15:33N 49°17' W 123°29'1918.7
2015-Jan-21 14:31N 49°12' W 123°57'0 0.0
2015-Jan-21 03:08N 49°12' W 123°57'5 8.1
2015-Jan-21 02:34N 49°14' W 123°51'1919.0
2015-Jan-21 01:34N 49°19' W 123°23'6 5.6
2015-Jan-21 00:33N 49°23' W 123°17'1918.8
2015-Jan-20 23:33N 49°15' W 123°43'1010.0
2015-Jan-20 22:33N 49°12' W 123°57'1110.7
2015-Jan-20 21:34N 49°16' W 123°42'1813.4
2015-Jan-20 20:12N 49°23' W 123°16'1116.6
2015-Jan-20 19:33N 49°17' W 123°30'1913.8
2015-Jan-20 18:13N 49°12' W 123°57'1217.7
2015-Jan-20 17:33N 49°16' W 123°41'1713.4
2015-Jan-20 16:16N 49°23' W 123°16'1216.4
2015-Jan-20 15:33N 49°17' W 123°32'1713.6
2015-Jan-20 14:17N 49°12' W 123°57'0 0.0
2015-Jan-20 04:21N 49°12' W 123°57'0 0.0
2015-Jan-20 03:15N 49°12' W 123°57'3 4.3
2015-Jan-20 02:33N 49°13' W 123°54'1918.6
2015-Jan-20 01:33N 49°19' W 123°26'8 7.6
2015-Jan-20 00:34N 49°23' W 123°17'1918.8
2015-Jan-19 23:33N 49°15' W 123°42'10 9.8
2015-Jan-19 22:31N 49°12' W 123°57'1212.5
2015-Jan-19 21:34N 49°17' W 123°41'1715.4
2015-Jan-19 20:27N 49°23' W 123°16'1010.8
2015-Jan-19 19:34N 49°18' W 123°29'1919.1
2015-Jan-19 18:33N 49°12' W 123°57'10 9.7
2015-Jan-19 17:34N 49°16' W 123°44'1919.1
2015-Jan-19 16:33N 49°23' W 123°16'9 9.4
2015-Jan-19 15:34N 49°18' W 123°28'2019.1
2015-Jan-19 14:31N 49°12' W 123°57'0 0.0
2015-Jan-19 13:05N 49°12' W 123°57'0 0.0
2015-Jan-19 10:23N 49°12' W 123°57'0 0.0
2015-Jan-19 07:08N 49°12' W 123°57'4 6.2
2015-Jan-19 06:33N 49°14' W 123°53'2019.8
2015-Jan-19 05:34N 49°19' W 123°24'4 4.1
2015-Jan-19 04:34N 49°22' W 123°19'2019.7
2015-Jan-19 03:34N 49°14' W 123°47'5 5.1
2015-Jan-19 02:33N 49°13' W 123°55'1919.0
2015-Jan-19 01:33N 49°19' W 123°27'8 7.9
2015-Jan-19 00:34N 49°23' W 123°17'1918.9
2015-Jan-18 23:33N 49°15' W 123°43'10 8.2
2015-Jan-18 22:21N 49°12' W 123°57'1316.8
2015-Jan-18 21:33N 49°17' W 123°39'1613.1
2015-Jan-18 20:21N 49°23' W 123°16'1113.2
2015-Jan-18 19:33N 49°17' W 123°30'1818.0
2015-Jan-18 18:32N 49°12' W 123°57'1110.9
2015-Jan-18 17:33N 49°16' W 123°43'1818.4
2015-Jan-18 16:34N 49°23' W 123°16'9 8.9
2015-Jan-18 15:34N 49°18' W 123°28'2019.8
2015-Jan-18 14:33N 49°12' W 123°57'1 0.1
2015-Jan-18 06:34N 49°13' W 123°55'2020.0
2015-Jan-18 05:33N 49°19' W 123°26'6 6.1
2015-Jan-18 04:33N 49°22' W 123°18'1919.1
2015-Jan-18 03:33N 49°15' W 123°46'7 7.0
2015-Jan-18 02:33N 49°13' W 123°56'2019.7
2015-Jan-18 01:33N 49°19' W 123°27'8 8.2
2015-Jan-18 00:33N 49°23' W 123°17'1918.7
2015-Jan-17 23:33N 49°15' W 123°43'1010.0
2015-Jan-17 22:33N 49°12' W 123°57'1313.7
2015-Jan-17 21:34N 49°17' W 123°39'1614.9
2015-Jan-17 20:31N 49°23' W 123°16'1212.8
2015-Jan-17 19:34N 49°17' W 123°33'1716.6
2015-Jan-17 18:33N 49°12' W 123°57'1212.4
2015-Jan-17 17:34N 49°17' W 123°40'1715.4
2015-Jan-17 16:29N 49°23' W 123°16'910.0
2015-Jan-17 15:33N 49°18' W 123°28'1919.3
2015-Jan-17 14:33N 49°12' W 123°57'1 0.7
2015-Jan-17 13:26N 49°12' W 123°57'0 0.0
2015-Jan-17 12:08N 49°12' W 123°57'0 0.0
2015-Jan-17 10:29N 49°12' W 123°57'1 0.2
2015-Jan-17 06:33N 49°12' W 123°57'2020.1
2015-Jan-17 05:33N 49°19' W 123°28'7 6.9
2015-Jan-17 04:34N 49°22' W 123°18'2019.6
2015-Jan-17 03:33N 49°15' W 123°46'6 6.1
2015-Jan-17 02:34N 49°13' W 123°55'2019.5
2015-Jan-17 01:33N 49°19' W 123°27'8 7.6
2015-Jan-17 00:33N 49°23' W 123°17'1919.1
2015-Jan-16 23:34N 49°15' W 123°43'10 9.7
2015-Jan-16 22:33N 49°12' W 123°57'1313.3
2015-Jan-16 21:33N 49°17' W 123°39'1614.2
2015-Jan-16 20:27N 49°23' W 123°16'1011.1
2015-Jan-16 19:34N 49°17' W 123°29'1917.8
2015-Jan-16 18:29N 49°12' W 123°57'1011.4
2015-Jan-16 17:34N 49°16' W 123°43'1918.6
2015-Jan-16 16:34N 49°23' W 123°16'9 8.9
2015-Jan-16 15:33N 49°18' W 123°27'2019.7
2015-Jan-16 14:33N 49°12' W 123°56'1 0.1
2015-Jan-16 08:20N 49°12' W 123°57'1 0.1
2015-Jan-16 02:34N 49°12' W 123°57'2019.7
2015-Jan-16 01:34N 49°19' W 123°28'9 8.9
2015-Jan-16 00:33N 49°23' W 123°17'1918.5
2015-Jan-15 23:33N 49°15' W 123°42'1010.2
2015-Jan-15 22:32N 49°12' W 123°57'1313.1
2015-Jan-15 21:33N 49°17' W 123°39'1615.1
2015-Jan-15 20:29N 49°23' W 123°16'1111.9
2015-Jan-15 19:33N 49°17' W 123°31'  
Track history (hours):
 
Tides and Currents Weather Stations Pressure Air Temp Water Temp Dewpoint Dewpoint Depression Visibility Wind Speed Wind Dir Waves Ship Positions

Queen Of Cowichan

Last reported at 2015-Jan-25 19:33 UTC. Time now 2015-Jan-25 20:24 UTC.
Position N 49°18' W 123°28'.

Length 139 m; draft 5.5 m.

Type: Passenger vessel. MMSI: 316001251.

Date/timePositionNaut miles runAvg speedWind from/ knotsBaromVisibWave heightAir tempDewpointWater temp
2015-Jan-25 19:33N 49°18' W 123°28'2019.8
2015-Jan-25 18:33N 49°12' W 123°57'9 9.5
2015-Jan-25 17:34N 49°16' W 123°44'1919.2
2015-Jan-25 16:33N 49°23' W 123°16'9 9.0
2015-Jan-25 15:33N 49°18' W 123°28'2019.7
2015-Jan-25 14:33N 49°12' W 123°57'1 0.2
2015-Jan-25 06:34N 49°13' W 123°55'2019.9
2015-Jan-25 05:34N 49°19' W 123°26'7 6.7
2015-Jan-25 04:33N 49°23' W 123°18'1919.1
2015-Jan-25 03:34N 49°15' W 123°44'9 8.8
2015-Jan-25 02:34N 49°12' W 123°57'2019.8
2015-Jan-25 01:33N 49°19' W 123°28'9 8.9
2015-Jan-25 00:34N 49°23' W 123°17'1918.6
2015-Jan-24 23:33N 49°16' W 123°43'10 7.3
2015-Jan-24 22:11N 49°12' W 123°57'1219.6
2015-Jan-24 21:33N 49°17' W 123°40'1712.3
2015-Jan-24 20:12N 49°23' W 123°16'1117.3
2015-Jan-24 19:33N 49°17' W 123°31'1813.2
2015-Jan-24 18:12N 49°12' W 123°57'1116.6
2015-Jan-24 17:33N 49°16' W 123°43'1812.7
2015-Jan-24 16:06N 49°23' W 123°16'916.8
2015-Jan-24 15:34N 49°18' W 123°28'2019.6
2015-Jan-24 14:33N 49°12' W 123°57'1 0.1
2015-Jan-24 07:22N 49°12' W 123°57'4 5.3
2015-Jan-24 06:33N 49°14' W 123°52'2020.0
2015-Jan-24 05:34N 49°20' W 123°23'1 1.1
2015-Jan-24 04:33N 49°19' W 123°21'2020.0
2015-Jan-24 03:33N 49°14' W 123°51'1 0.8
2015-Jan-24 02:33N 49°14' W 123°52'2019.8
2015-Jan-24 01:33N 49°19' W 123°23'5 4.8
2015-Jan-24 00:33N 49°23' W 123°18'1818.4
2015-Jan-23 23:33N 49°15' W 123°43'10 7.8
2015-Jan-23 22:18N 49°12' W 123°57'1418.6
2015-Jan-23 21:33N 49°17' W 123°38'1514.8
2015-Jan-23 20:32N 49°23' W 123°16'1212.7
2015-Jan-23 19:34N 49°17' W 123°33'1715.7
2015-Jan-23 18:29N 49°12' W 123°57'1212.9
2015-Jan-23 17:33N 49°17' W 123°41'1711.8
2015-Jan-23 16:07N 49°23' W 123°16'916.0
2015-Jan-23 15:33N 49°18' W 123°28'2019.7
2015-Jan-23 14:33N 49°12' W 123°57'1 0.1
2015-Jan-23 02:33N 49°12' W 123°56'1919.4
2015-Jan-23 01:33N 49°19' W 123°28'9 8.6
2015-Jan-23 00:33N 49°23' W 123°17'1918.7
2015-Jan-22 23:33N 49°15' W 123°43'10 6.7
2015-Jan-22 22:04N 49°12' W 123°57'1019.2
2015-Jan-22 21:33N 49°16' W 123°44'1919.0
2015-Jan-22 20:34N 49°23' W 123°16'10 9.6
2015-Jan-22 19:33N 49°17' W 123°28'2019.7
2015-Jan-22 18:33N 49°12' W 123°57'10 9.6
2015-Jan-22 17:33N 49°16' W 123°44'1919.1
2015-Jan-22 16:34N 49°23' W 123°17'9 8.8
2015-Jan-22 15:34N 49°18' W 123°28'2019.7
2015-Jan-22 14:33N 49°12' W 123°57'1 0.3
2015-Jan-22 12:12N 49°12' W 123°57'3 0.3
2015-Jan-22 02:33N 49°13' W 123°54'1918.6
2015-Jan-22 01:34N 49°19' W 123°27'8 7.9
2015-Jan-22 00:33N 49°23' W 123°17'1918.7
2015-Jan-21 23:34N 49°15' W 123°43'10 6.8
2015-Jan-21 22:04N 49°12' W 123°57'918.8
2015-Jan-21 21:33N 49°16' W 123°44'1919.2
2015-Jan-21 20:34N 49°23' W 123°17'10 9.8
2015-Jan-21 19:33N 49°18' W 123°29'1919.2
2015-Jan-21 18:33N 49°12' W 123°57'1010.0
2015-Jan-21 17:33N 49°16' W 123°43'1918.9
2015-Jan-21 16:33N 49°23' W 123°16'10 9.9
2015-Jan-21 15:33N 49°17' W 123°29'1918.7
2015-Jan-21 14:31N 49°12' W 123°57'0 0.0
2015-Jan-21 03:08N 49°12' W 123°57'5 8.1
2015-Jan-21 02:34N 49°14' W 123°51'1919.0
2015-Jan-21 01:34N 49°19' W 123°23'6 5.6
2015-Jan-21 00:33N 49°23' W 123°17'1918.8
2015-Jan-20 23:33N 49°15' W 123°43'1010.0
2015-Jan-20 22:33N 49°12' W 123°57'1110.7
2015-Jan-20 21:34N 49°16' W 123°42'1813.4
2015-Jan-20 20:12N 49°23' W 123°16'1116.6
2015-Jan-20 19:33N 49°17' W 123°30'1913.8
2015-Jan-20 18:13N 49°12' W 123°57'1217.7
2015-Jan-20 17:33N 49°16' W 123°41'1713.4
2015-Jan-20 16:16N 49°23' W 123°16'1216.4
2015-Jan-20 15:33N 49°17' W 123°32'1713.6
2015-Jan-20 14:17N 49°12' W 123°57'0 0.0
2015-Jan-20 04:21N 49°12' W 123°57'0 0.0
2015-Jan-20 03:15N 49°12' W 123°57'3 4.3
2015-Jan-20 02:33N 49°13' W 123°54'1918.6
2015-Jan-20 01:33N 49°19' W 123°26'8 7.6
2015-Jan-20 00:34N 49°23' W 123°17'1918.8
2015-Jan-19 23:33N 49°15' W 123°42'10 9.8
2015-Jan-19 22:31N 49°12' W 123°57'1212.5
2015-Jan-19 21:34N 49°17' W 123°41'1715.4
2015-Jan-19 20:27N 49°23' W 123°16'1010.8
2015-Jan-19 19:34N 49°18' W 123°29'1919.1
2015-Jan-19 18:33N 49°12' W 123°57'10 9.7
2015-Jan-19 17:34N 49°16' W 123°44'1919.1
2015-Jan-19 16:33N 49°23' W 123°16'9 9.4
2015-Jan-19 15:34N 49°18' W 123°28'2019.1
2015-Jan-19 14:31N 49°12' W 123°57'0 0.0
2015-Jan-19 13:05N 49°12' W 123°57'0 0.0
2015-Jan-19 10:23N 49°12' W 123°57'0 0.0
2015-Jan-19 07:08N 49°12' W 123°57'4 6.2
2015-Jan-19 06:33N 49°14' W 123°53'2019.8
2015-Jan-19 05:34N 49°19' W 123°24'4 4.1
2015-Jan-19 04:34N 49°22' W 123°19'2019.7
2015-Jan-19 03:34N 49°14' W 123°47'5 5.1
2015-Jan-19 02:33N 49°13' W 123°55'1919.0
2015-Jan-19 01:33N 49°19' W 123°27'8 7.9
2015-Jan-19 00:34N 49°23' W 123°17'1918.9
2015-Jan-18 23:33N 49°15' W 123°43'10 8.2
2015-Jan-18 22:21N 49°12' W 123°57'1316.8
2015-Jan-18 21:33N 49°17' W 123°39'1613.1
2015-Jan-18 20:21N 49°23' W 123°16'1113.2
2015-Jan-18 19:33N 49°17' W 123°30'1818.0
2015-Jan-18 18:32N 49°12' W 123°57'1110.9
2015-Jan-18 17:33N 49°16' W 123°43'1818.4
2015-Jan-18 16:34N 49°23' W 123°16'9 8.9
2015-Jan-18 15:34N 49°18' W 123°28'2019.8
2015-Jan-18 14:33N 49°12' W 123°57'1 0.1
2015-Jan-18 06:34N 49°13' W 123°55'2020.0
2015-Jan-18 05:33N 49°19' W 123°26'6 6.1
2015-Jan-18 04:33N 49°22' W 123°18'1919.1
2015-Jan-18 03:33N 49°15' W 123°46'7 7.0
2015-Jan-18 02:33N 49°13' W 123°56'2019.7
2015-Jan-18 01:33N 49°19' W 123°27'8 8.2
2015-Jan-18 00:33N 49°23' W 123°17'1918.7
2015-Jan-17 23:33N 49°15' W 123°43'1010.0
2015-Jan-17 22:33N 49°12' W 123°57'1313.7
2015-Jan-17 21:34N 49°17' W 123°39'1614.9
2015-Jan-17 20:31N 49°23' W 123°16'1212.8
2015-Jan-17 19:34N 49°17' W 123°33'1716.6
2015-Jan-17 18:33N 49°12' W 123°57'1212.4
2015-Jan-17 17:34N 49°17' W 123°40'1715.4
2015-Jan-17 16:29N 49°23' W 123°16'910.0
2015-Jan-17 15:33N 49°18' W 123°28'1919.3
2015-Jan-17 14:33N 49°12' W 123°57'1 0.7
2015-Jan-17 13:26N 49°12' W 123°57'0 0.0
2015-Jan-17 12:08N 49°12' W 123°57'0 0.0
2015-Jan-17 10:29N 49°12' W 123°57'1 0.2
2015-Jan-17 06:33N 49°12' W 123°57'2020.1
2015-Jan-17 05:33N 49°19' W 123°28'7 6.9
2015-Jan-17 04:34N 49°22' W 123°18'2019.6
2015-Jan-17 03:33N 49°15' W 123°46'6 6.1
2015-Jan-17 02:34N 49°13' W 123°55'2019.5
2015-Jan-17 01:33N 49°19' W 123°27'8 7.6
2015-Jan-17 00:33N 49°23' W 123°17'1919.1
2015-Jan-16 23:34N 49°15' W 123°43'10 9.7
2015-Jan-16 22:33N 49°12' W 123°57'1313.3
2015-Jan-16 21:33N 49°17' W 123°39'1614.2
2015-Jan-16 20:27N 49°23' W 123°16'1011.1
2015-Jan-16 19:34N 49°17' W 123°29'1917.8
2015-Jan-16 18:29N 49°12' W 123°57'1011.4
2015-Jan-16 17:34N 49°16' W 123°43'1918.6
2015-Jan-16 16:34N 49°23' W 123°16'9 8.9
2015-Jan-16 15:33N 49°18' W 123°27'2019.7
2015-Jan-16 14:33N 49°12' W 123°56'1 0.1
2015-Jan-16 08:20N 49°12' W 123°57'1 0.1
2015-Jan-16 02:34N 49°12' W 123°57'2019.7
2015-Jan-16 01:34N 49°19' W 123°28'9 8.9
2015-Jan-16 00:33N 49°23' W 123°17'1918.5
2015-Jan-15 23:33N 49°15' W 123°42'1010.2
2015-Jan-15 22:32N 49°12' W 123°57'1313.1
2015-Jan-15 21:33N 49°17' W 123°39'1615.1
2015-Jan-15 20:29N 49°23' W 123°16'1111.9
2015-Jan-15 19:33N 49°17' W 123°31'  

Dump ship's entire track history